Time;durP1;ratioP1;P1;durP2;ratioP2;P2;SDS_P1;SDS_P2;PMS_P1;PMS_P2;Temp;Humidity;BMP_temperature;BMP_pressure;BME280_temperature;BME280_humidity;BME280_pressure;Samples;Min_cycle;Max_cycle;Signal;HPM_P1;HPM_P2
2021/09/02 00:00:38;;;;;;;40.75;23.33;;;;;;;12.87;78.75;102541.63;5002401;28;20113;-75
2021/09/02 00:03:04;;;;;;;42.45;23.73;;;;;;;12.84;78.82;102542.69;5001678;28;20037;-73
2021/09/02 00:05:29;;;;;;;44.70;23.90;;;;;;;12.81;78.71;102541.16;4988365;28;20022;-73
2021/09/02 00:07:55;;;;;;;43.60;24.60;;;;;;;12.77;79.00;102536.34;4985710;28;20030;-73
2021/09/02 00:10:22;;;;;;;44.05;23.50;;;;;;;12.74;79.07;102534.81;5001004;28;20030;-73
2021/09/02 00:12:47;;;;;;;44.28;24.17;;;;;;;12.73;79.11;102535.75;4987266;28;20527;-73
2021/09/02 00:15:13;;;;;;;49.03;26.70;;;;;;;12.65;79.26;102535.59;5000834;28;20034;-73
2021/09/02 00:17:38;;;;;;;39.78;22.67;;;;;;;12.62;79.38;102531.47;4986308;28;20041;-73
2021/09/02 00:20:05;;;;;;;40.58;24.05;;;;;;;12.53;79.29;102529.63;4985788;28;20039;-73
2021/09/02 00:22:31;;;;;;;37.30;22.67;;;;;;;12.43;79.50;102532.16;4985668;28;20022;-73
2021/09/02 00:24:56;;;;;;;40.70;23.13;;;;;;;12.33;79.58;102535.63;5001759;28;20057;-73
2021/09/02 00:27:22;;;;;;;38.35;22.98;;;;;;;12.28;79.87;102533.41;4984670;28;20026;-73
2021/09/02 00:29:47;;;;;;;43.50;22.50;;;;;;;12.24;79.41;102526.78;4986168;28;20276;-75
2021/09/02 00:32:13;;;;;;;39.78;22.90;;;;;;;12.19;79.50;102529.78;4998557;28;20038;-74
2021/09/02 00:34:38;;;;;;;41.85;22.83;;;;;;;12.20;79.74;102530.59;5004670;28;20037;-73
2021/09/02 00:37:04;;;;;;;40.93;23.90;;;;;;;12.19;79.53;102526.38;4951061;28;1088050;-73
2021/09/02 00:39:30;;;;;;;42.58;24.42;;;;;;;12.17;79.61;102510.06;4984219;28;20256;-72
2021/09/02 00:41:55;;;;;;;38.83;22.80;;;;;;;12.16;79.60;102511.00;5004172;28;20033;-72
2021/09/02 00:44:34;;;;;;;46.55;23.52;;;;;;;12.11;79.56;102523.53;4988044;28;20038;-73
2021/09/02 00:47:02;;;;;;;44.50;24.67;;;;;;;12.02;79.81;102512.13;4987106;28;20125;-72
2021/09/02 00:49:28;;;;;;;44.05;24.23;;;;;;;11.99;80.08;102522.75;5002114;28;20049;-72
2021/09/02 00:51:54;;;;;;;37.15;21.65;;;;;;;11.99;80.05;102515.78;4985481;28;20042;-72
2021/09/02 00:54:19;;;;;;;43.45;23.02;;;;;;;12.01;80.03;102520.88;5001792;28;20035;-72
2021/09/02 00:56:45;;;;;;;39.10;21.98;;;;;;;12.00;80.02;102520.03;5002733;28;20042;-72
2021/09/02 00:59:10;;;;;;;40.88;24.33;;;;;;;11.99;79.87;102517.56;4985981;28;20451;-72
2021/09/02 01:01:35;;;;;;;47.10;24.70;;;;;;;11.95;79.98;102518.78;4985785;28;20515;-72
2021/09/02 01:04:03;;;;;;;47.38;25.02;;;;;;;11.94;79.99;102517.09;5001924;28;20092;-75
2021/09/02 01:06:29;;;;;;;41.45;22.67;;;;;;;11.93;80.10;102518.06;5000691;28;20092;-74
2021/09/02 01:08:55;;;;;;;47.15;24.88;;;;;;;11.85;80.21;102516.88;4983712;28;20042;-72
2021/09/02 01:11:22;;;;;;;53.97;25.88;;;;;;;11.80;80.43;102515.59;5001275;28;20030;-74
2021/09/02 01:13:48;;;;;;;48.60;24.58;;;;;;;11.80;80.32;102519.00;4987475;28;20515;-72
2021/09/02 01:16:13;;;;;;;44.33;24.27;;;;;;;11.81;80.42;102522.41;5000843;28;20571;-72
2021/09/02 01:18:39;;;;;;;42.15;24.20;;;;;;;11.79;80.24;102519.97;4987836;28;20033;-72
2021/09/02 01:21:05;;;;;;;43.15;23.65;;;;;;;11.73;80.39;102523.03;4985458;28;20034;-72
2021/09/02 01:23:37;;;;;;;40.47;22.27;;;;;;;11.69;80.50;102521.63;4985073;28;20074;-72
2021/09/02 01:26:16;;;;;;;43.27;24.23;;;;;;;11.66;80.42;102519.28;4985250;28;20038;-72
2021/09/02 01:28:42;;;;;;;41.67;22.13;;;;;;;11.64;80.47;102515.97;5000932;28;20041;-72
2021/09/02 01:31:09;;;;;;;43.35;23.33;;;;;;;11.65;80.53;102528.84;5002871;28;20042;-72
2021/09/02 01:33:35;;;;;;;42.42;22.60;;;;;;;11.65;80.41;102525.41;4986194;28;20042;-72
2021/09/02 01:36:00;;;;;;;48.28;26.30;;;;;;;11.64;80.32;102519.41;4985663;28;20049;-72
2021/09/02 01:38:26;;;;;;;45.67;24.67;;;;;;;11.63;80.21;102519.53;4986730;28;20026;-72
2021/09/02 01:40:51;;;;;;;49.25;27.85;;;;;;;11.58;80.66;102517.28;4998366;28;20389;-72
2021/09/02 01:43:18;;;;;;;45.75;25.23;;;;;;;11.53;80.76;102518.56;5004329;28;20037;-75
2021/09/02 01:45:44;;;;;;;52.58;25.77;;;;;;;11.49;80.82;102521.44;5001677;28;20034;-73
2021/09/02 01:48:10;;;;;;;41.10;24.02;;;;;;;11.45;80.80;102522.63;4999446;28;20034;-72
2021/09/02 01:50:40;;;;;;;44.00;23.88;;;;;;;11.44;80.90;102525.34;4980116;28;20551;-72
2021/09/02 01:53:08;;;;;;;49.42;25.83;;;;;;;11.44;81.10;102522.75;4984376;28;20495;-75
2021/09/02 01:55:35;;;;;;;43.65;23.40;;;;;;;11.45;80.85;102519.19;4997525;28;20065;-72
2021/09/02 01:58:01;;;;;;;42.67;25.02;;;;;;;11.45;80.57;102529.56;5003213;28;20053;-74
2021/09/02 02:00:26;;;;;;;45.63;24.58;;;;;;;11.44;80.62;102518.34;5000581;28;20492;-76
2021/09/02 02:02:52;;;;;;;43.67;25.13;;;;;;;11.41;80.65;102521.19;4985210;28;20038;-75
2021/09/02 02:05:18;;;;;;;43.05;23.45;;;;;;;11.34;80.75;102526.97;4984337;28;20447;-74
2021/09/02 02:07:44;;;;;;;43.67;22.65;;;;;;;11.23;80.83;102525.22;5000313;28;20038;-72
2021/09/02 02:10:13;;;;;;;39.08;23.13;;;;;;;11.15;81.26;102528.41;4985978;28;20546;-74
2021/09/02 02:12:39;;;;;;;38.15;21.83;;;;;;;11.07;81.13;102523.78;4985210;28;20030;-74
2021/09/02 02:15:05;;;;;;;42.42;22.30;;;;;;;11.00;81.35;102519.19;5001382;28;20038;-75
2021/09/02 02:17:31;;;;;;;40.97;22.20;;;;;;;10.94;81.78;102525.66;4985159;28;20104;-74
2021/09/02 02:19:56;;;;;;;39.20;20.88;;;;;;;10.95;82.11;102534.31;4982850;28;20496;-75
2021/09/02 02:22:22;;;;;;;38.60;21.75;;;;;;;10.93;82.19;102526.63;4985318;28;20085;-75
2021/09/02 02:24:47;;;;;;;42.20;21.92;;;;;;;10.93;82.83;102528.41;4983571;28;20038;-75
2021/09/02 02:27:13;;;;;;;44.80;24.02;;;;;;;10.94;82.92;102525.66;4999991;28;20088;-71
2021/09/02 02:29:38;;;;;;;43.90;23.42;;;;;;;10.99;83.08;102520.13;4999806;28;20038;-72
2021/09/02 02:32:04;;;;;;;50.53;26.17;;;;;;;11.03;83.30;102519.78;4983531;28;20034;-73
2021/09/02 02:34:30;;;;;;;47.22;24.77;;;;;;;11.07;83.48;102518.59;5000033;28;20417;-74
2021/09/02 02:36:56;;;;;;;47.67;25.55;;;;;;;11.10;83.77;102514.97;4984738;28;20586;-72
2021/09/02 02:39:21;;;;;;;52.10;26.35;;;;;;;11.13;83.83;102511.28;4999653;28;20537;-74
2021/09/02 02:41:47;;;;;;;54.08;26.48;;;;;;;11.14;84.04;102510.34;4998635;28;20073;-72
2021/09/02 02:44:12;;;;;;;48.13;25.90;;;;;;;11.10;84.52;102513.19;4999224;28;20023;-72
2021/09/02 02:46:38;;;;;;;54.17;26.48;;;;;;;11.12;84.89;102515.66;4999534;28;20538;-72
2021/09/02 02:49:03;;;;;;;49.92;27.38;;;;;;;11.15;84.87;102515.44;4999339;28;20478;-72
2021/09/02 02:51:29;;;;;;;44.60;25.60;;;;;;;11.18;84.94;102516.97;4982605;28;20034;-74
2021/09/02 02:53:54;;;;;;;49.40;27.02;;;;;;;11.20;85.23;102505.50;5001217;28;20067;-74
2021/09/02 02:56:20;;;;;;;51.17;26.85;;;;;;;11.21;84.98;102501.97;4985464;28;20023;-72
2021/09/02 02:58:48;;;;;;;49.42;26.33;;;;;;;11.22;85.37;102508.00;4999992;28;20034;-73
2021/09/02 03:01:13;;;;;;;51.10;26.48;;;;;;;11.25;85.71;102507.75;4999460;28;20077;-75
2021/09/02 03:03:39;;;;;;;52.65;26.02;;;;;;;11.29;85.44;102514.38;4984304;28;20030;-73
2021/09/02 03:06:05;;;;;;;54.20;28.95;;;;;;;11.31;85.65;102502.09;4987353;28;20265;-75
2021/09/02 03:08:31;;;;;;;58.42;28.45;;;;;;;11.32;85.52;102501.16;4984994;28;20064;-75
2021/09/02 03:10:56;;;;;;;49.35;26.98;;;;;;;11.34;86.11;102503.59;4982641;28;20042;-75
2021/09/02 03:13:22;;;;;;;51.88;27.63;;;;;;;11.36;86.20;102499.97;4986457;28;20085;-75
2021/09/02 03:15:47;;;;;;;56.70;28.73;;;;;;;11.37;86.69;102500.78;4983255;28;20535;-74
2021/09/02 03:18:13;;;;;;;51.20;27.40;;;;;;;11.37;86.49;102498.19;4983492;28;20039;-74
2021/09/02 03:20:38;;;;;;;46.78;24.88;;;;;;;11.36;86.80;102496.50;4984661;28;20034;-74
2021/09/02 03:23:04;;;;;;;50.22;27.90;;;;;;;11.36;86.43;102499.97;4985767;28;20034;-75
2021/09/02 03:25:29;;;;;;;44.90;24.17;;;;;;;11.33;86.32;102494.19;4999106;28;20511;-73
2021/09/02 03:27:55;;;;;;;42.40;23.95;;;;;;;11.32;86.66;102485.56;4983808;28;20026;-75
2021/09/02 03:30:20;;;;;;;46.60;25.52;;;;;;;11.33;86.77;102487.22;4983450;28;20496;-75
2021/09/02 03:32:45;;;;;;;50.63;26.65;;;;;;;11.34;86.65;102488.03;4984943;28;20042;-72
2021/09/02 03:35:11;;;;;;;46.08;24.40;;;;;;;11.35;86.88;102489.69;5001569;28;20092;-72
2021/09/02 03:37:37;;;;;;;46.80;24.55;;;;;;;11.35;86.52;102489.69;4998376;28;20049;-72
2021/09/02 03:40:03;;;;;;;42.40;23.23;;;;;;;11.35;86.61;102489.69;5002246;28;20132;-73
2021/09/02 03:42:29;;;;;;;47.15;25.08;;;;;;;11.36;86.37;102492.16;5000518;28;20035;-74
2021/09/02 03:44:54;;;;;;;49.08;24.38;;;;;;;11.36;86.38;102492.16;4983283;28;20037;-72
2021/09/02 03:47:19;;;;;;;52.17;25.15;;;;;;;11.38;86.65;102492.06;4983824;28;20030;-72
2021/09/02 03:49:45;;;;;;;48.28;23.17;;;;;;;11.39;86.66;102489.31;4983187;28;20422;-72
2021/09/02 03:52:10;;;;;;;42.20;24.02;;;;;;;11.42;86.52;102483.06;4999431;28;20030;-72
2021/09/02 03:54:36;;;;;;;45.75;25.08;;;;;;;11.43;86.32;102485.56;4998541;28;20440;-73
2021/09/02 03:57:01;;;;;;;50.17;23.92;;;;;;;11.42;86.14;102488.25;4984411;28;20038;-72
2021/09/02 03:59:27;;;;;;;44.03;24.20;;;;;;;11.40;85.86;102482.38;4998773;28;20504;-73
2021/09/02 04:01:52;;;;;;;44.72;23.92;;;;;;;11.38;86.08;102484.25;4999279;28;20038;-72
2021/09/02 04:04:18;;;;;;;50.38;25.88;;;;;;;11.36;86.28;102479.19;4982130;28;20547;-71
2021/09/02 04:06:43;;;;;;;40.60;22.63;;;;;;;11.37;86.51;102480.00;4984541;28;20297;-72
2021/09/02 04:09:09;;;;;;;46.85;23.83;;;;;;;11.37;86.13;102483.41;4986181;28;20547;-72
2021/09/02 04:11:34;;;;;;;43.63;23.52;;;;;;;11.37;86.04;102483.41;4982605;28;20026;-73
2021/09/02 04:14:00;;;;;;;38.85;22.70;;;;;;;11.37;86.07;102485.19;4985234;28;20116;-74
2021/09/02 04:16:25;;;;;;;39.75;23.15;;;;;;;11.35;85.83;102477.53;4984861;28;20038;-75
2021/09/02 04:18:51;;;;;;;40.67;22.25;;;;;;;11.35;86.02;102477.53;5001052;28;20156;-74
2021/09/02 04:21:16;;;;;;;47.05;23.88;;;;;;;11.35;85.86;102477.53;4988597;28;20049;-72
2021/09/02 04:23:43;;;;;;;44.58;23.20;;;;;;;11.36;86.00;102476.59;5001318;28;20034;-73
2021/09/02 04:26:10;;;;;;;45.60;24.40;;;;;;;11.36;85.74;102478.34;5002737;28;20035;-73
2021/09/02 04:28:35;;;;;;;41.75;23.25;;;;;;;11.35;85.58;102480.13;4987016;28;20030;-75
2021/09/02 04:31:01;;;;;;;40.85;21.63;;;;;;;11.34;85.67;102472.44;4987094;28;20065;-71
2021/09/02 04:33:27;;;;;;;44.22;22.23;;;;;;;11.34;85.61;102481.06;4998592;28;20441;-72
2021/09/02 04:35:52;;;;;;;44.50;22.77;;;;;;;11.33;85.33;102482.00;4986903;28;20221;-72
2021/09/02 04:38:19;;;;;;;43.95;25.25;;;;;;;11.32;85.31;102485.56;4985209;28;20424;-75
2021/09/02 04:40:46;;;;;;;47.45;24.23;;;;;;;11.29;85.31;102489.22;5003563;28;20410;-75
2021/09/02 04:43:11;;;;;;;42.58;22.55;;;;;;;11.28;85.34;102484.97;4988041;28;20030;-75
2021/09/02 04:45:37;;;;;;;40.92;22.52;;;;;;;11.28;85.29;102489.31;5002433;28;20685;-75
2021/09/02 04:48:11;;;;;;;40.92;22.90;;;;;;;11.28;85.04;102484.13;5004675;28;20038;-75
2021/09/02 04:50:37;;;;;;;40.97;21.77;;;;;;;11.26;84.96;102483.44;5004026;28;20034;-72
2021/09/02 04:53:02;;;;;;;38.05;21.40;;;;;;;11.24;85.12;102485.31;4987748;28;20488;-72
2021/09/02 04:55:28;;;;;;;48.47;22.98;;;;;;;11.20;85.21;102484.72;4989817;28;20050;-73
2021/09/02 04:57:53;;;;;;;40.17;22.02;;;;;;;11.20;85.16;102478.72;4986950;28;20088;-75
2021/09/02 05:00:19;;;;;;;41.03;21.80;;;;;;;11.18;85.28;102478.00;4988128;28;20039;-75
2021/09/02 05:02:44;;;;;;;37.55;21.42;;;;;;;11.15;85.17;102473.06;4990613;28;20031;-75
2021/09/02 05:05:10;;;;;;;38.28;20.65;;;;;;;11.14;85.15;102471.41;4986731;28;20089;-72
2021/09/02 05:07:35;;;;;;;42.80;22.02;;;;;;;11.13;85.44;102467.16;4984923;28;20513;-75
2021/09/02 05:10:06;;;;;;;40.92;22.80;;;;;;;11.14;85.10;102466.22;5002582;28;20034;-72
2021/09/02 05:12:31;;;;;;;41.83;21.80;;;;;;;11.14;85.16;102463.63;4987452;28;20472;-72
2021/09/02 05:14:57;;;;;;;38.15;21.88;;;;;;;11.11;85.01;102467.25;5001781;28;20049;-74
2021/09/02 05:17:22;;;;;;;40.55;21.02;;;;;;;11.13;85.08;102464.56;4984945;28;20049;-74
2021/09/02 05:19:47;;;;;;;37.92;20.67;;;;;;;11.14;84.85;102468.81;4986476;28;20080;-74
2021/09/02 05:22:13;;;;;;;36.67;21.05;;;;;;;11.14;84.80;102463.63;4987626;28;20468;-74
2021/09/02 05:24:38;;;;;;;46.10;21.70;;;;;;;11.15;84.66;102458.31;4984511;28;20411;-74
2021/09/02 05:27:05;;;;;;;36.13;20.08;;;;;;;11.15;84.71;102467.84;4987452;28;20518;-74
2021/09/02 05:29:30;;;;;;;35.92;20.95;;;;;;;11.16;84.64;102466.94;5000531;28;20041;-74
2021/09/02 05:31:56;;;;;;;38.17;21.00;;;;;;;11.17;84.59;102473.75;4985853;28;20030;-74
2021/09/02 05:34:21;;;;;;;38.75;20.48;;;;;;;11.18;84.49;102480.63;4985029;28;20030;-74
2021/09/02 05:36:47;;;;;;;38.30;19.65;;;;;;;11.19;84.78;102471.88;4987260;28;20412;-74
2021/09/02 05:39:12;;;;;;;37.10;19.80;;;;;;;11.22;84.62;102479.44;4989235;28;20042;-74
2021/09/02 05:41:37;;;;;;;43.08;20.98;;;;;;;11.23;84.89;102468.09;5004738;28;20395;-74
2021/09/02 05:44:03;;;;;;;37.08;19.67;;;;;;;11.26;84.55;102473.88;5000756;28;20052;-74
2021/09/02 05:46:29;;;;;;;35.95;19.40;;;;;;;11.27;84.57;102467.72;5001459;28;20026;-74
2021/09/02 05:48:54;;;;;;;37.30;20.25;;;;;;;11.29;84.56;102471.03;4987268;28;20393;-73
2021/09/02 05:51:19;;;;;;;35.38;19.13;;;;;;;11.34;84.68;102467.25;4987285;28;20041;-74
2021/09/02 05:53:45;;;;;;;41.72;20.35;;;;;;;11.35;85.14;102476.69;4986262;28;20038;-74
2021/09/02 05:56:10;;;;;;;40.10;19.73;;;;;;;11.37;85.32;102475.63;5000950;28;20045;-73
2021/09/02 05:58:36;;;;;;;41.08;20.60;;;;;;;11.42;85.43;102477.88;4986066;28;20042;-74
2021/09/02 06:01:01;;;;;;;34.95;19.27;;;;;;;11.45;85.55;102475.88;4986193;28;20038;-74
2021/09/02 06:03:28;;;;;;;36.60;20.27;;;;;;;11.50;85.33;102473.72;4985659;28;20097;-74
2021/09/02 06:05:54;;;;;;;34.30;18.70;;;;;;;11.56;85.31;102475.00;4986288;28;20030;-74
2021/09/02 06:08:19;;;;;;;38.88;18.80;;;;;;;11.60;85.28;102472.97;5002727;28;20093;-74
2021/09/02 06:10:45;;;;;;;33.83;19.42;;;;;;;11.65;85.27;102478.66;5001919;28;20029;-74
2021/09/02 06:13:10;;;;;;;34.33;18.10;;;;;;;11.67;85.13;102472.38;4999034;28;21103;-74
2021/09/02 06:15:35;;;;;;;34.80;18.98;;;;;;;11.73;85.11;102478.03;5000083;28;20489;-73
2021/09/02 06:18:01;;;;;;;35.08;17.92;;;;;;;11.77;84.99;102484.63;4986225;28;20077;-74
2021/09/02 06:20:28;;;;;;;33.47;17.95;;;;;;;11.82;85.32;102478.13;4983964;28;20031;-74
2021/09/02 06:22:54;;;;;;;31.35;17.73;;;;;;;11.87;85.55;102483.78;4983990;28;20040;-73
2021/09/02 06:25:19;;;;;;;32.13;18.30;;;;;;;11.92;85.66;102480.81;4984793;28;20038;-74
2021/09/02 06:27:45;;;;;;;31.83;17.70;;;;;;;11.97;85.54;102483.88;4986664;28;20041;-74
2021/09/02 06:30:10;;;;;;;32.53;18.50;;;;;;;12.05;86.06;102484.13;5000927;28;20330;-74
2021/09/02 06:32:36;;;;;;;32.58;18.75;;;;;;;12.14;85.55;102479.91;4989950;28;20042;-74
2021/09/02 06:35:02;;;;;;;33.88;18.27;;;;;;;12.23;85.28;102484.38;5012379;28;20072;-74
2021/09/02 06:37:27;;;;;;;29.63;17.40;;;;;;;12.33;85.52;102479.22;4985572;28;20034;-74
2021/09/02 06:39:53;;;;;;;33.10;18.50;;;;;;;12.48;85.35;102479.75;4985337;28;20034;-74
2021/09/02 06:42:18;;;;;;;33.22;19.45;;;;;;;12.69;85.13;102478.91;4984147;28;20065;-73
2021/09/02 06:44:44;;;;;;;41.50;20.15;;;;;;;12.88;84.69;102476.38;4987037;28;20027;-74
2021/09/02 06:47:09;;;;;;;38.33;19.42;;;;;;;13.05;84.23;102474.94;4997290;28;20030;-74
2021/09/02 06:49:35;;;;;;;39.17;19.27;;;;;;;13.28;83.73;102475.59;5015988;28;20044;-74
2021/09/02 06:52:01;;;;;;;41.83;19.88;;;;;;;13.53;83.09;102476.09;5001631;28;20508;-75
2021/09/02 06:54:26;;;;;;;50.35;23.55;;;;;;;13.81;82.16;102475.28;4987580;28;20073;-74
2021/09/02 06:56:52;;;;;;;36.80;19.70;;;;;;;14.26;80.68;102473.91;4986823;28;20050;-76
2021/09/02 06:59:19;;;;;;;40.25;19.00;;;;;;;14.89;77.45;102480.34;4988010;28;20030;-75
2021/09/02 07:01:45;;;;;;;39.92;17.50;;;;;;;15.68;74.32;102473.72;5000052;28;20030;-76
2021/09/02 07:04:10;;;;;;;34.42;16.10;;;;;;;16.33;72.88;102476.06;4985546;28;20039;-76
2021/09/02 07:06:36;;;;;;;37.35;17.52;;;;;;;16.76;70.40;102476.16;5009437;28;20026;-75
2021/09/02 07:09:01;;;;;;;37.10;17.17;;;;;;;16.88;69.00;102478.38;4999427;28;20045;-74
2021/09/02 07:11:27;;;;;;;31.58;16.45;;;;;;;16.34;70.93;102478.53;5000075;28;20022;-76
2021/09/02 07:13:52;;;;;;;33.75;17.02;;;;;;;15.80;73.15;102482.19;4982685;28;20411;-76
2021/09/02 07:16:18;;;;;;;30.05;14.98;;;;;;;15.31;74.97;102483.31;4990675;28;20033;-76
2021/09/02 07:18:43;;;;;;;27.52;14.27;;;;;;;15.04;76.68;102478.91;4984931;28;20037;-76
2021/09/02 07:21:09;;;;;;;32.05;15.32;;;;;;;14.87;77.67;102485.72;5000119;28;20038;-76
2021/09/02 07:23:34;;;;;;;32.80;14.40;;;;;;;14.79;79.11;102485.63;4983132;28;20088;-77
2021/09/02 07:26:00;;;;;;;31.45;15.88;;;;;;;14.90;78.71;102489.81;4987137;28;20033;-77
2021/09/02 07:28:25;;;;;;;32.00;15.40;;;;;;;14.92;79.21;102501.78;5000592;28;20081;-77
2021/09/02 07:30:50;;;;;;;32.67;16.05;;;;;;;14.95;79.52;102500.66;4985343;28;20038;-76
2021/09/02 07:33:16;;;;;;;30.50;15.05;;;;;;;14.88;79.28;102504.81;4984428;28;20034;-77
2021/09/02 07:35:42;;;;;;;30.88;14.85;;;;;;;14.87;79.73;102503.19;4999128;28;20500;-77
2021/09/02 07:38:07;;;;;;;27.55;14.25;;;;;;;14.88;80.04;102505.66;4984995;28;20153;-76
2021/09/02 07:40:34;;;;;;;32.00;15.55;;;;;;;14.96;80.18;102508.34;5000917;28;20125;-75
2021/09/02 07:42:59;;;;;;;30.70;14.95;;;;;;;15.08;79.81;102503.75;4984899;28;20050;-76
2021/09/02 07:45:25;;;;;;;33.08;15.60;;;;;;;15.23;79.56;102501.50;4998165;28;20041;-76
2021/09/02 07:47:50;;;;;;;34.53;15.95;;;;;;;15.36;78.55;102509.81;5000635;28;20058;-77
2021/09/02 07:50:16;;;;;;;24.85;13.02;;;;;;;15.48;78.47;102510.47;5001255;28;20034;-76
2021/09/02 07:52:41;;;;;;;29.70;14.50;;;;;;;15.64;77.70;102499.34;4985057;28;20495;-76
2021/09/02 07:55:09;;;;;;;26.00;13.57;;;;;;;15.85;75.86;102498.25;5002942;28;20092;-76
2021/09/02 07:57:35;;;;;;;33.85;14.60;;;;;;;16.07;75.12;102504.84;5002684;28;20035;-76
2021/09/02 08:00:02;;;;;;;29.48;14.30;;;;;;;16.23;74.94;102499.72;4989157;28;20038;-76
2021/09/02 08:02:37;;;;;;;29.08;14.15;;;;;;;16.57;72.59;102495.53;4988341;28;20029;-76
2021/09/02 08:05:03;;;;;;;30.02;13.40;;;;;;;16.71;72.63;102497.59;4988836;28;20061;-76
2021/09/02 08:07:28;;;;;;;28.55;12.80;;;;;;;16.77;73.42;102501.38;4990068;28;20030;-76
2021/09/02 08:09:54;;;;;;;25.15;12.10;;;;;;;16.78;72.81;102501.19;5002781;28;20538;-74
2021/09/02 08:12:19;;;;;;;33.60;14.30;;;;;;;16.85;71.08;102498.81;5002971;28;20496;-76
2021/09/02 08:14:44;;;;;;;33.03;12.60;;;;;;;17.00;69.15;102501.69;5007179;28;20034;-75
2021/09/02 08:17:10;;;;;;;25.58;11.55;;;;;;;16.90;70.46;102507.84;5003339;28;20027;-74
2021/09/02 08:19:35;;;;;;;27.60;11.15;;;;;;;17.22;68.10;102500.28;5007020;28;20569;-76
2021/09/02 08:22:01;;;;;;;24.67;11.30;;;;;;;18.33;66.40;102489.44;4994977;28;20041;-75
2021/09/02 08:24:27;;;;;;;25.40;10.27;;;;;;;19.10;62.99;102486.28;5008407;28;20046;-75
2021/09/02 08:26:53;;;;;;;27.58;10.60;;;;;;;19.56;60.67;102481.06;5002254;28;20033;-75
2021/09/02 08:29:19;;;;;;;27.63;11.95;;;;;;;19.89;59.74;102480.88;5002984;28;20177;-74
2021/09/02 08:31:44;;;;;;;22.30;10.57;;;;;;;20.35;57.92;102474.69;4987489;28;20038;-76
2021/09/02 08:34:10;;;;;;;23.45;11.27;;;;;;;20.59;57.82;102473.59;4987498;28;20035;-76
2021/09/02 08:36:36;;;;;;;26.85;11.40;;;;;;;20.97;57.58;102473.50;5002660;28;20026;-74
2021/09/02 08:39:02;;;;;;;25.30;11.43;;;;;;;21.17;55.52;102469.28;4985721;28;20656;-75
2021/09/02 08:41:28;;;;;;;23.67;11.15;;;;;;;21.34;56.03;102474.28;4990639;28;20143;-75
2021/09/02 08:43:53;;;;;;;25.27;10.88;;;;;;;21.58;54.99;102473.16;4990212;28;20062;-76
2021/09/02 08:46:20;;;;;;;20.83;10.05;;;;;;;21.86;55.25;102477.66;4994048;28;20515;-77
2021/09/02 08:48:48;;;;;;;22.75;11.07;;;;;;;21.89;54.37;102478.09;5006229;28;20038;-76
2021/09/02 08:51:14;;;;;;;29.48;11.55;;;;;;;21.84;54.46;102477.03;4990839;28;20038;-75
2021/09/02 08:53:42;;;;;;;23.05;12.73;;;;;;;21.47;53.91;102485.00;5003181;28;20089;-76
2021/09/02 08:56:07;;;;;;;22.98;10.50;;;;;;;21.38;54.74;102486.13;5005017;28;20100;-76
2021/09/02 08:58:33;;;;;;;20.95;10.18;;;;;;;21.56;54.22;102481.25;5003701;28;20030;-75
2021/09/02 09:00:59;;;;;;;24.23;9.50;;;;;;;21.83;55.28;102484.16;5003206;28;20034;-77
2021/09/02 09:03:25;;;;;;;22.75;11.13;;;;;;;21.95;53.42;102476.50;5002571;28;20038;-76
2021/09/02 09:05:56;;;;;;;21.25;9.75;;;;;;;22.10;52.79;102479.06;4990283;28;21149;-76
2021/09/02 09:08:37;;;;;;;21.92;9.82;;;;;;;22.40;52.78;102478.88;5011046;28;20038;-75
2021/09/02 09:11:24;;;;;;;20.02;9.27;;;;;;;22.51;51.45;102473.88;4991871;28;20440;-76
2021/09/02 09:14:05;;;;;;;20.95;10.55;;;;;;;22.53;51.81;102471.03;4985965;28;20096;-75
2021/09/02 09:16:49;;;;;;;27.88;11.80;;;;;;;22.43;50.48;102468.72;4989722;28;20038;-76
2021/09/02 09:19:35;;;;;;;25.83;10.43;;;;;;;22.16;53.37;102470.38;4985664;28;20034;-75
2021/09/02 09:22:01;;;;;;;20.17;9.52;;;;;;;22.25;53.00;102474.53;5012371;28;20045;-76
2021/09/02 09:24:54;;;;;;;23.60;10.73;;;;;;;22.27;52.66;102463.75;4990727;28;20034;-76
2021/09/02 09:27:24;;;;;;;20.70;9.65;;;;;;;22.42;53.24;102466.28;4999387;28;20034;-76
2021/09/02 09:30:19;;;;;;;20.80;10.90;;;;;;;22.41;52.70;102470.75;5001942;28;20527;-75
2021/09/02 09:32:47;;;;;;;18.92;9.45;;;;;;;22.30;53.28;102480.06;5000893;28;20121;-76
2021/09/02 09:35:19;;;;;;;25.35;10.05;;;;;;;22.10;53.12;102476.44;4985914;28;20030;-75
2021/09/02 09:37:45;;;;;;;22.13;10.93;;;;;;;22.21;53.63;102469.78;4989417;28;20034;-77
2021/09/02 09:40:23;;;;;;;21.50;8.98;;;;;;;22.41;52.73;102464.66;4988112;28;20076;-76
2021/09/02 09:43:06;;;;;;;25.58;10.77;;;;;;;22.25;51.86;102457.84;4986836;28;20027;-76
2021/09/02 09:45:31;;;;;;;;;;;;;;;22.46;54.28;102467.53;5000856;28;20092;-75
2021/09/02 09:47:57;;;;;;;20.77;10.47;;;;;;;22.68;52.82;102460.34;5000557;28;19918;-76
2021/09/02 09:50:22;;;;;;;24.40;9.55;;;;;;;22.60;52.33;102457.84;5000207;28;21170;-76
2021/09/02 09:52:48;;;;;;;17.80;8.82;;;;;;;22.48;53.58;102452.28;5001465;28;20094;-74
2021/09/02 09:55:18;;;;;;;20.00;9.18;;;;;;;22.39;52.58;102456.91;5001313;28;20049;-76
2021/09/02 09:57:46;;;;;;;20.70;8.32;;;;;;;22.65;52.11;102455.44;5003275;28;20432;-75
2021/09/02 10:00:14;;;;;;;19.88;9.07;;;;;;;22.54;53.97;102456.78;5004577;28;20085;-76
2021/09/02 10:02:42;;;;;;;17.20;9.02;;;;;;;22.76;52.60;102456.69;4999939;28;20070;-76
2021/09/02 10:05:10;;;;;;;18.52;9.48;;;;;;;22.74;53.06;102454.25;4985790;28;20026;-76
2021/09/02 10:07:37;;;;;;;20.58;8.73;;;;;;;22.77;52.88;102445.91;4984869;28;20030;-76
2021/09/02 10:10:05;;;;;;;14.05;7.68;;;;;;;22.99;54.28;102457.16;4988461;28;20044;-76
2021/09/02 10:12:35;;;;;;;20.98;8.93;;;;;;;22.65;51.24;102452.78;4986705;28;20057;-76
2021/09/02 10:15:09;;;;;;;17.92;8.43;;;;;;;22.53;51.63;102450.69;5002148;28;20503;-74
2021/09/02 10:17:36;;;;;;;27.73;10.05;;;;;;;22.27;53.01;102445.28;4985938;28;20062;-75
2021/09/02 10:20:12;;;;;;;17.42;9.07;;;;;;;22.31;54.52;102439.38;4987360;28;20112;-76
2021/09/02 10:22:38;;;;;;;15.20;7.95;;;;;;;22.29;53.50;102443.25;4989806;28;20538;-76
2021/09/02 10:25:38;;;;;;;18.98;9.57;;;;;;;22.57;53.91;102437.09;4984262;28;20038;-76
2021/09/02 10:28:17;;;;;;;14.30;7.28;;;;;;;22.40;52.76;102434.78;4986790;28;20038;-76
2021/09/02 10:30:51;;;;;;;17.98;8.18;;;;;;;22.26;52.51;102431.22;5001086;28;20041;-76
2021/09/02 10:33:40;;;;;;;20.67;8.40;;;;;;;21.91;52.05;102439.09;4985957;28;20057;-78
2021/09/02 10:36:11;;;;;;;16.83;8.50;;;;;;;21.87;54.00;102424.66;4985184;28;20049;-76
2021/09/02 10:38:39;;;;;;;20.88;8.50;;;;;;;21.96;55.01;102426.16;4983350;28;20065;-77
2021/09/02 10:41:06;;;;;;;19.75;8.93;;;;;;;21.93;54.67;102418.59;4984418;28;20038;-75
2021/09/02 10:43:50;;;;;;;20.08;7.60;;;;;;;22.10;53.92;102420.97;4985525;28;20030;-76
2021/09/02 10:46:27;;;;;;;17.70;7.20;;;;;;;22.35;54.39;102424.78;5000495;28;20492;-76
2021/09/02 10:48:52;;;;;;;13.30;7.53;;;;;;;22.25;51.79;102423.50;4985320;28;20044;-73
2021/09/02 10:51:38;;;;;;;16.38;7.63;;;;;;;22.12;52.70;102418.94;5001931;28;20041;-75
2021/09/02 10:54:06;;;;;;;11.68;6.97;;;;;;;22.10;54.49;102421.75;4983816;28;20030;-77
2021/09/02 10:56:56;;;;;;;21.05;8.63;;;;;;;22.11;52.79;102415.50;4990492;28;20048;-76
2021/09/02 10:59:34;;;;;;;16.27;7.88;;;;;;;22.20;52.23;102407.41;5003241;28;20054;-76
2021/09/02 11:02:00;;;;;;;14.63;7.75;;;;;;;22.32;54.04;102414.63;4989755;28;20038;-76
2021/09/02 11:04:25;;;;;;;17.85;8.23;;;;;;;22.57;53.26;102405.38;4984891;28;20030;-77
2021/09/02 11:06:52;;;;;;;22.40;9.65;;;;;;;22.65;51.98;102407.84;5001673;28;20484;-77
2021/09/02 11:09:32;;;;;;;17.10;6.68;;;;;;;22.72;53.04;102401.56;4984598;28;21398;-78
2021/09/02 11:11:58;;;;;;;21.85;8.82;;;;;;;22.92;51.49;102401.63;4987346;28;20130;-77